sensor_id;sensor_type;location;lat;lon;timestamp;temperature;humidity
55004;DHT22;40900;52.710;6.438;2023-07-22T00:02:19;14.00;99.90
55004;DHT22;40900;52.710;6.438;2023-07-22T00:04:46;14.00;99.90
55004;DHT22;40900;52.710;6.438;2023-07-22T00:07:11;14.10;99.90
55004;DHT22;40900;52.710;6.438;2023-07-22T00:09:37;14.10;99.90
55004;DHT22;40900;52.710;6.438;2023-07-22T00:12:04;14.10;99.90
55004;DHT22;40900;52.710;6.438;2023-07-22T00:14:30;14.20;99.90
55004;DHT22;40900;52.710;6.438;2023-07-22T00:16:56;14.10;99.90
55004;DHT22;40900;52.710;6.438;2023-07-22T00:19:22;14.10;99.90
55004;DHT22;40900;52.710;6.438;2023-07-22T00:21:49;14.10;99.90
55004;DHT22;40900;52.710;6.438;2023-07-22T00:24:14;14.00;99.90
55004;DHT22;40900;52.710;6.438;2023-07-22T00:26:41;14.00;99.90
55004;DHT22;40900;52.710;6.438;2023-07-22T00:29:07;13.80;99.90
55004;DHT22;40900;52.710;6.438;2023-07-22T00:31:33;13.90;99.90
55004;DHT22;40900;52.710;6.438;2023-07-22T00:33:59;13.90;99.90
55004;DHT22;40900;52.710;6.438;2023-07-22T00:36:25;13.80;99.90
55004;DHT22;40900;52.710;6.438;2023-07-22T00:38:51;13.90;99.90
55004;DHT22;40900;52.710;6.438;2023-07-22T00:41:18;13.80;99.90
55004;DHT22;40900;52.710;6.438;2023-07-22T00:43:44;13.90;99.90
55004;DHT22;40900;52.710;6.438;2023-07-22T00:46:09;13.90;99.90
55004;DHT22;40900;52.710;6.438;2023-07-22T00:48:35;13.90;99.90
55004;DHT22;40900;52.710;6.438;2023-07-22T00:51:01;13.90;99.90
55004;DHT22;40900;52.710;6.438;2023-07-22T00:53:27;13.90;99.90
55004;DHT22;40900;52.710;6.438;2023-07-22T00:55:54;13.90;99.90
55004;DHT22;40900;52.710;6.438;2023-07-22T00:58:20;13.90;99.90
55004;DHT22;40900;52.710;6.438;2023-07-22T01:00:46;13.90;99.90
55004;DHT22;40900;52.710;6.438;2023-07-22T01:03:12;13.90;99.90
55004;DHT22;40900;52.710;6.438;2023-07-22T01:05:39;13.90;99.90
55004;DHT22;40900;52.710;6.438;2023-07-22T01:08:05;13.90;99.90
55004;DHT22;40900;52.710;6.438;2023-07-22T01:10:31;13.90;99.90
55004;DHT22;40900;52.710;6.438;2023-07-22T01:12:57;13.90;99.90
55004;DHT22;40900;52.710;6.438;2023-07-22T01:15:24;14.00;99.90
55004;DHT22;40900;52.710;6.438;2023-07-22T01:17:50;14.00;99.90
55004;DHT22;40900;52.710;6.438;2023-07-22T01:20:17;14.00;99.90
55004;DHT22;40900;52.710;6.438;2023-07-22T01:22:53;14.10;99.90
55004;DHT22;40900;52.710;6.438;2023-07-22T01:25:20;14.00;99.90
55004;DHT22;40900;52.710;6.438;2023-07-22T01:27:48;14.00;99.90
55004;DHT22;40900;52.710;6.438;2023-07-22T01:30:13;13.90;99.90
55004;DHT22;40900;52.710;6.438;2023-07-22T01:32:40;13.90;99.90
55004;DHT22;40900;52.710;6.438;2023-07-22T01:35:06;13.90;99.90
55004;DHT22;40900;52.710;6.438;2023-07-22T01:37:33;13.90;99.90
55004;DHT22;40900;52.710;6.438;2023-07-22T01:39:59;13.90;99.90
55004;DHT22;40900;52.710;6.438;2023-07-22T01:42:25;14.00;99.90
55004;DHT22;40900;52.710;6.438;2023-07-22T01:44:52;14.00;99.90
55004;DHT22;40900;52.710;6.438;2023-07-22T01:47:17;13.90;99.90
55004;DHT22;40900;52.710;6.438;2023-07-22T01:49:44;13.90;99.90
55004;DHT22;40900;52.710;6.438;2023-07-22T01:52:10;14.00;99.90
55004;DHT22;40900;52.710;6.438;2023-07-22T01:54:36;14.00;99.90
55004;DHT22;40900;52.710;6.438;2023-07-22T01:57:02;14.10;99.90
55004;DHT22;40900;52.710;6.438;2023-07-22T01:59:27;14.10;99.90
55004;DHT22;40900;52.710;6.438;2023-07-22T02:01:53;14.10;99.90
55004;DHT22;40900;52.710;6.438;2023-07-22T02:04:19;14.10;99.90
55004;DHT22;40900;52.710;6.438;2023-07-22T02:06:44;14.10;99.90
55004;DHT22;40900;52.710;6.438;2023-07-22T02:09:10;14.10;99.90
55004;DHT22;40900;52.710;6.438;2023-07-22T02:11:39;14.10;99.90
55004;DHT22;40900;52.710;6.438;2023-07-22T02:14:05;14.10;99.90
55004;DHT22;40900;52.710;6.438;2023-07-22T02:16:35;14.00;99.90
55004;DHT22;40900;52.710;6.438;2023-07-22T02:19:02;13.90;99.90
55004;DHT22;40900;52.710;6.438;2023-07-22T02:21:28;13.90;99.90
55004;DHT22;40900;52.710;6.438;2023-07-22T02:23:54;13.90;99.90
55004;DHT22;40900;52.710;6.438;2023-07-22T02:26:20;13.80;99.90
55004;DHT22;40900;52.710;6.438;2023-07-22T02:28:46;13.80;99.90
55004;DHT22;40900;52.710;6.438;2023-07-22T02:31:12;13.80;99.90
55004;DHT22;40900;52.710;6.438;2023-07-22T02:33:38;13.80;99.90
55004;DHT22;40900;52.710;6.438;2023-07-22T02:36:04;13.80;99.90
55004;DHT22;40900;52.710;6.438;2023-07-22T02:38:30;13.80;99.90
55004;DHT22;40900;52.710;6.438;2023-07-22T02:41:01;13.60;99.90
55004;DHT22;40900;52.710;6.438;2023-07-22T02:43:27;13.70;99.90
55004;DHT22;40900;52.710;6.438;2023-07-22T02:45:53;13.70;99.90
55004;DHT22;40900;52.710;6.438;2023-07-22T02:48:19;13.70;99.90
55004;DHT22;40900;52.710;6.438;2023-07-22T02:50:45;13.70;99.90
55004;DHT22;40900;52.710;6.438;2023-07-22T02:53:11;13.70;99.90
55004;DHT22;40900;52.710;6.438;2023-07-22T02:55:37;13.80;99.90
55004;DHT22;40900;52.710;6.438;2023-07-22T02:58:02;13.80;99.90
55004;DHT22;40900;52.710;6.438;2023-07-22T03:00:28;13.70;99.90
55004;DHT22;40900;52.710;6.438;2023-07-22T03:02:56;13.70;99.90
55004;DHT22;40900;52.710;6.438;2023-07-22T03:05:31;13.70;99.90
55004;DHT22;40900;52.710;6.438;2023-07-22T03:07:58;13.70;99.90
55004;DHT22;40900;52.710;6.438;2023-07-22T03:10:25;13.70;99.90
55004;DHT22;40900;52.710;6.438;2023-07-22T03:12:51;13.70;99.90
55004;DHT22;40900;52.710;6.438;2023-07-22T03:15:21;13.70;99.90
55004;DHT22;40900;52.710;6.438;2023-07-22T03:17:47;13.60;99.90
55004;DHT22;40900;52.710;6.438;2023-07-22T03:20:14;13.50;99.90
55004;DHT22;40900;52.710;6.438;2023-07-22T03:22:42;13.50;99.90
55004;DHT22;40900;52.710;6.438;2023-07-22T03:25:09;13.60;99.90
55004;DHT22;40900;52.710;6.438;2023-07-22T03:27:36;13.60;99.90
55004;DHT22;40900;52.710;6.438;2023-07-22T03:30:06;13.60;99.90
55004;DHT22;40900;52.710;6.438;2023-07-22T03:32:34;13.50;99.90
55004;DHT22;40900;52.710;6.438;2023-07-22T03:35:00;13.60;99.90
55004;DHT22;40900;52.710;6.438;2023-07-22T03:37:27;13.50;99.90
55004;DHT22;40900;52.710;6.438;2023-07-22T03:39:53;13.50;99.90
55004;DHT22;40900;52.710;6.438;2023-07-22T03:42:19;13.60;99.90
55004;DHT22;40900;52.710;6.438;2023-07-22T03:44:45;13.60;99.90
55004;DHT22;40900;52.710;6.438;2023-07-22T03:47:10;13.60;99.90
55004;DHT22;40900;52.710;6.438;2023-07-22T03:49:36;13.50;99.90
55004;DHT22;40900;52.710;6.438;2023-07-22T03:52:02;13.60;99.90
55004;DHT22;40900;52.710;6.438;2023-07-22T03:54:28;13.70;99.90
55004;DHT22;40900;52.710;6.438;2023-07-22T03:56:53;13.70;99.90
55004;DHT22;40900;52.710;6.438;2023-07-22T03:59:19;13.80;99.90
55004;DHT22;40900;52.710;6.438;2023-07-22T04:01:45;13.80;99.90
55004;DHT22;40900;52.710;6.438;2023-07-22T04:04:12;13.90;99.90
55004;DHT22;40900;52.710;6.438;2023-07-22T04:06:38;13.90;99.90
55004;DHT22;40900;52.710;6.438;2023-07-22T04:09:03;13.90;99.90
55004;DHT22;40900;52.710;6.438;2023-07-22T04:11:29;13.90;99.90
55004;DHT22;40900;52.710;6.438;2023-07-22T04:13:55;13.80;99.90
55004;DHT22;40900;52.710;6.438;2023-07-22T04:16:21;13.80;99.90
55004;DHT22;40900;52.710;6.438;2023-07-22T04:18:46;13.80;99.90
55004;DHT22;40900;52.710;6.438;2023-07-22T04:21:12;13.90;99.90
55004;DHT22;40900;52.710;6.438;2023-07-22T04:23:38;13.80;99.90
55004;DHT22;40900;52.710;6.438;2023-07-22T04:26:03;13.80;99.90
55004;DHT22;40900;52.710;6.438;2023-07-22T04:28:35;13.80;99.90
55004;DHT22;40900;52.710;6.438;2023-07-22T04:31:01;13.80;99.90
55004;DHT22;40900;52.710;6.438;2023-07-22T04:33:27;13.80;99.90
55004;DHT22;40900;52.710;6.438;2023-07-22T04:35:59;13.90;99.90
55004;DHT22;40900;52.710;6.438;2023-07-22T04:38:25;14.00;99.90
55004;DHT22;40900;52.710;6.438;2023-07-22T04:40:51;14.00;99.90
55004;DHT22;40900;52.710;6.438;2023-07-22T04:43:17;14.00;99.90
55004;DHT22;40900;52.710;6.438;2023-07-22T04:45:46;14.00;99.90
55004;DHT22;40900;52.710;6.438;2023-07-22T04:48:20;14.00;99.90
55004;DHT22;40900;52.710;6.438;2023-07-22T04:50:46;14.00;99.90
55004;DHT22;40900;52.710;6.438;2023-07-22T04:53:12;14.10;99.90
55004;DHT22;40900;52.710;6.438;2023-07-22T04:55:41;14.10;99.90
55004;DHT22;40900;52.710;6.438;2023-07-22T04:58:07;14.10;99.90
55004;DHT22;40900;52.710;6.438;2023-07-22T05:00:34;14.10;99.90
55004;DHT22;40900;52.710;6.438;2023-07-22T05:03:00;14.20;99.90
55004;DHT22;40900;52.710;6.438;2023-07-22T05:05:26;14.10;99.90
55004;DHT22;40900;52.710;6.438;2023-07-22T05:07:51;14.10;99.90
55004;DHT22;40900;52.710;6.438;2023-07-22T05:10:18;14.10;99.90
55004;DHT22;40900;52.710;6.438;2023-07-22T05:12:45;14.10;99.90
55004;DHT22;40900;52.710;6.438;2023-07-22T05:15:12;14.10;99.90
55004;DHT22;40900;52.710;6.438;2023-07-22T05:17:39;14.10;99.90
55004;DHT22;40900;52.710;6.438;2023-07-22T05:20:05;14.10;99.90
55004;DHT22;40900;52.710;6.438;2023-07-22T05:22:38;14.00;99.90
55004;DHT22;40900;52.710;6.438;2023-07-22T05:25:05;14.10;99.90
55004;DHT22;40900;52.710;6.438;2023-07-22T05:27:32;14.10;99.90
55004;DHT22;40900;52.710;6.438;2023-07-22T05:29:57;14.10;99.90
55004;DHT22;40900;52.710;6.438;2023-07-22T05:32:23;14.10;99.90
55004;DHT22;40900;52.710;6.438;2023-07-22T05:34:49;14.10;99.90
55004;DHT22;40900;52.710;6.438;2023-07-22T05:37:15;14.10;99.90
55004;DHT22;40900;52.710;6.438;2023-07-22T05:39:40;14.10;99.90
55004;DHT22;40900;52.710;6.438;2023-07-22T05:42:06;14.20;99.90
55004;DHT22;40900;52.710;6.438;2023-07-22T05:44:32;14.20;99.90
55004;DHT22;40900;52.710;6.438;2023-07-22T05:46:58;14.20;99.90
55004;DHT22;40900;52.710;6.438;2023-07-22T05:49:24;14.20;99.90
55004;DHT22;40900;52.710;6.438;2023-07-22T05:51:50;14.20;99.90
55004;DHT22;40900;52.710;6.438;2023-07-22T05:54:16;14.30;99.90
55004;DHT22;40900;52.710;6.438;2023-07-22T05:56:42;14.30;99.90
55004;DHT22;40900;52.710;6.438;2023-07-22T05:59:08;14.30;99.90
55004;DHT22;40900;52.710;6.438;2023-07-22T06:01:34;14.30;99.90
55004;DHT22;40900;52.710;6.438;2023-07-22T06:04:00;14.30;99.90
55004;DHT22;40900;52.710;6.438;2023-07-22T06:06:26;14.30;99.90
55004;DHT22;40900;52.710;6.438;2023-07-22T06:08:52;14.30;99.90
55004;DHT22;40900;52.710;6.438;2023-07-22T06:11:18;14.30;99.90
55004;DHT22;40900;52.710;6.438;2023-07-22T06:13:44;14.30;99.90
55004;DHT22;40900;52.710;6.438;2023-07-22T06:16:09;14.30;99.90
55004;DHT22;40900;52.710;6.438;2023-07-22T06:18:35;14.30;99.90
55004;DHT22;40900;52.710;6.438;2023-07-22T06:21:01;14.40;99.90
55004;DHT22;40900;52.710;6.438;2023-07-22T06:23:27;14.40;99.90
55004;DHT22;40900;52.710;6.438;2023-07-22T06:25:52;14.40;99.90
55004;DHT22;40900;52.710;6.438;2023-07-22T06:28:18;14.40;99.90
55004;DHT22;40900;52.710;6.438;2023-07-22T06:30:44;14.40;99.90
55004;DHT22;40900;52.710;6.438;2023-07-22T06:33:09;14.30;99.90
55004;DHT22;40900;52.710;6.438;2023-07-22T06:35:35;14.40;99.90
55004;DHT22;40900;52.710;6.438;2023-07-22T06:38:01;14.40;99.90
55004;DHT22;40900;52.710;6.438;2023-07-22T06:40:27;14.40;99.90
55004;DHT22;40900;52.710;6.438;2023-07-22T06:42:52;14.40;99.90
55004;DHT22;40900;52.710;6.438;2023-07-22T06:45:19;14.50;99.90
55004;DHT22;40900;52.710;6.438;2023-07-22T06:47:44;14.50;99.90
55004;DHT22;40900;52.710;6.438;2023-07-22T06:50:10;14.60;99.90
55004;DHT22;40900;52.710;6.438;2023-07-22T06:52:36;14.60;99.90
55004;DHT22;40900;52.710;6.438;2023-07-22T06:55:02;14.70;99.90
55004;DHT22;40900;52.710;6.438;2023-07-22T06:57:29;14.70;99.90
55004;DHT22;40900;52.710;6.438;2023-07-22T06:59:55;14.80;99.90
55004;DHT22;40900;52.710;6.438;2023-07-22T07:02:21;14.90;99.90
55004;DHT22;40900;52.710;6.438;2023-07-22T07:04:47;15.00;99.90
55004;DHT22;40900;52.710;6.438;2023-07-22T07:07:13;15.10;99.90
55004;DHT22;40900;52.710;6.438;2023-07-22T07:09:39;15.10;99.90
55004;DHT22;40900;52.710;6.438;2023-07-22T07:12:06;15.10;99.90
55004;DHT22;40900;52.710;6.438;2023-07-22T07:14:35;15.20;99.90
55004;DHT22;40900;52.710;6.438;2023-07-22T07:17:02;15.10;99.90
55004;DHT22;40900;52.710;6.438;2023-07-22T07:19:28;15.10;99.90
55004;DHT22;40900;52.710;6.438;2023-07-22T07:21:54;15.20;99.90
55004;DHT22;40900;52.710;6.438;2023-07-22T07:24:20;15.20;99.90
55004;DHT22;40900;52.710;6.438;2023-07-22T07:26:46;15.20;99.90
55004;DHT22;40900;52.710;6.438;2023-07-22T07:29:12;15.20;99.90
55004;DHT22;40900;52.710;6.438;2023-07-22T07:31:38;15.30;99.90
55004;DHT22;40900;52.710;6.438;2023-07-22T07:34:04;15.30;99.90
55004;DHT22;40900;52.710;6.438;2023-07-22T07:36:31;15.40;99.90
55004;DHT22;40900;52.710;6.438;2023-07-22T07:38:57;15.50;99.90
55004;DHT22;40900;52.710;6.438;2023-07-22T07:41:23;15.60;99.90
55004;DHT22;40900;52.710;6.438;2023-07-22T07:43:48;15.70;99.90
55004;DHT22;40900;52.710;6.438;2023-07-22T07:46:25;15.80;99.90
55004;DHT22;40900;52.710;6.438;2023-07-22T07:48:56;15.90;99.90
55004;DHT22;40900;52.710;6.438;2023-07-22T07:51:23;15.90;99.90
55004;DHT22;40900;52.710;6.438;2023-07-22T07:53:50;15.90;99.90
55004;DHT22;40900;52.710;6.438;2023-07-22T07:56:17;15.90;99.90
55004;DHT22;40900;52.710;6.438;2023-07-22T07:58:44;15.90;99.90
55004;DHT22;40900;52.710;6.438;2023-07-22T08:01:10;15.90;99.90
55004;DHT22;40900;52.710;6.438;2023-07-22T08:03:37;15.90;99.90
55004;DHT22;40900;52.710;6.438;2023-07-22T08:06:03;16.00;99.90
55004;DHT22;40900;52.710;6.438;2023-07-22T08:08:29;16.00;99.90
55004;DHT22;40900;52.710;6.438;2023-07-22T08:13:27;16.10;99.90
55004;DHT22;40900;52.710;6.438;2023-07-22T08:15:55;16.20;99.90
55004;DHT22;40900;52.710;6.438;2023-07-22T08:18:21;16.30;99.90
55004;DHT22;40900;52.710;6.438;2023-07-22T08:20:47;16.40;99.90
55004;DHT22;40900;52.710;6.438;2023-07-22T08:23:14;16.50;99.90
55004;DHT22;40900;52.710;6.438;2023-07-22T08:25:39;16.80;99.90
55004;DHT22;40900;52.710;6.438;2023-07-22T08:28:05;17.10;99.90
55004;DHT22;40900;52.710;6.438;2023-07-22T08:30:31;17.50;99.90
55004;DHT22;40900;52.710;6.438;2023-07-22T08:32:57;17.90;99.90
55004;DHT22;40900;52.710;6.438;2023-07-22T08:35:22;17.80;99.90
55004;DHT22;40900;52.710;6.438;2023-07-22T08:37:48;17.60;99.90
55004;DHT22;40900;52.710;6.438;2023-07-22T08:40:14;17.40;99.90
55004;DHT22;40900;52.710;6.438;2023-07-22T08:42:41;17.20;99.90
55004;DHT22;40900;52.710;6.438;2023-07-22T08:45:09;17.20;99.90
55004;DHT22;40900;52.710;6.438;2023-07-22T08:47:40;17.30;99.90
55004;DHT22;40900;52.710;6.438;2023-07-22T08:50:10;17.30;99.90
55004;DHT22;40900;52.710;6.438;2023-07-22T08:52:37;17.40;99.90
55004;DHT22;40900;52.710;6.438;2023-07-22T08:55:03;17.50;99.90
55004;DHT22;40900;52.710;6.438;2023-07-22T08:57:30;17.50;99.90
55004;DHT22;40900;52.710;6.438;2023-07-22T08:59:57;17.70;99.90
55004;DHT22;40900;52.710;6.438;2023-07-22T09:02:24;17.90;99.90
55004;DHT22;40900;52.710;6.438;2023-07-22T09:04:50;18.00;99.90
55004;DHT22;40900;52.710;6.438;2023-07-22T09:07:17;17.90;99.90
55004;DHT22;40900;52.710;6.438;2023-07-22T09:09:45;17.80;99.90
55004;DHT22;40900;52.710;6.438;2023-07-22T09:12:13;17.70;99.90
55004;DHT22;40900;52.710;6.438;2023-07-22T09:14:40;17.50;99.90
55004;DHT22;40900;52.710;6.438;2023-07-22T09:17:06;17.30;99.90
55004;DHT22;40900;52.710;6.438;2023-07-22T09:19:32;17.10;99.90
55004;DHT22;40900;52.710;6.438;2023-07-22T09:21:58;16.90;99.90
55004;DHT22;40900;52.710;6.438;2023-07-22T09:24:25;16.80;99.90
55004;DHT22;40900;52.710;6.438;2023-07-22T09:26:51;16.90;99.90
55004;DHT22;40900;52.710;6.438;2023-07-22T09:29:18;17.00;99.90
55004;DHT22;40900;52.710;6.438;2023-07-22T09:31:53;17.10;99.90
55004;DHT22;40900;52.710;6.438;2023-07-22T09:34:19;17.30;99.90
55004;DHT22;40900;52.710;6.438;2023-07-22T09:36:52;17.30;99.90
55004;DHT22;40900;52.710;6.438;2023-07-22T09:39:18;17.40;99.90
55004;DHT22;40900;52.710;6.438;2023-07-22T09:41:44;17.50;99.90
55004;DHT22;40900;52.710;6.438;2023-07-22T09:44:11;17.50;99.90
55004;DHT22;40900;52.710;6.438;2023-07-22T09:46:38;17.60;99.90
55004;DHT22;40900;52.710;6.438;2023-07-22T09:49:11;17.60;99.90
55004;DHT22;40900;52.710;6.438;2023-07-22T09:51:40;17.70;99.90
55004;DHT22;40900;52.710;6.438;2023-07-22T09:54:07;17.60;99.90
55004;DHT22;40900;52.710;6.438;2023-07-22T09:56:47;17.70;99.90
55004;DHT22;40900;52.710;6.438;2023-07-22T09:59:14;17.70;99.90
55004;DHT22;40900;52.710;6.438;2023-07-22T10:01:41;17.70;99.90
55004;DHT22;40900;52.710;6.438;2023-07-22T10:04:08;18.00;99.90
55004;DHT22;40900;52.710;6.438;2023-07-22T10:06:36;17.80;99.90
55004;DHT22;40900;52.710;6.438;2023-07-22T10:09:04;17.80;99.90
55004;DHT22;40900;52.710;6.438;2023-07-22T10:11:34;17.80;99.90
55004;DHT22;40900;52.710;6.438;2023-07-22T10:14:04;17.90;99.90
55004;DHT22;40900;52.710;6.438;2023-07-22T10:16:30;17.90;99.90
55004;DHT22;40900;52.710;6.438;2023-07-22T10:18:57;17.90;99.90
55004;DHT22;40900;52.710;6.438;2023-07-22T10:21:24;17.90;99.90
55004;DHT22;40900;52.710;6.438;2023-07-22T10:23:50;17.90;99.90
55004;DHT22;40900;52.710;6.438;2023-07-22T10:26:18;17.80;99.90
55004;DHT22;40900;52.710;6.438;2023-07-22T10:28:47;17.80;99.90
55004;DHT22;40900;52.710;6.438;2023-07-22T10:31:14;17.80;99.90
55004;DHT22;40900;52.710;6.438;2023-07-22T10:33:46;17.70;99.90
55004;DHT22;40900;52.710;6.438;2023-07-22T10:36:16;17.70;99.90
55004;DHT22;40900;52.710;6.438;2023-07-22T10:38:43;17.80;99.90
55004;DHT22;40900;52.710;6.438;2023-07-22T10:41:13;17.80;99.90
55004;DHT22;40900;52.710;6.438;2023-07-22T10:43:40;17.90;99.90
55004;DHT22;40900;52.710;6.438;2023-07-22T10:46:12;17.90;99.90
55004;DHT22;40900;52.710;6.438;2023-07-22T10:48:42;17.90;99.90
55004;DHT22;40900;52.710;6.438;2023-07-22T10:51:13;17.90;99.90
55004;DHT22;40900;52.710;6.438;2023-07-22T10:53:42;17.90;99.90
55004;DHT22;40900;52.710;6.438;2023-07-22T10:56:18;17.70;99.90
55004;DHT22;40900;52.710;6.438;2023-07-22T11:04:25;16.70;99.90
55004;DHT22;40900;52.710;6.438;2023-07-22T11:07:05;16.30;99.90
55004;DHT22;40900;52.710;6.438;2023-07-22T11:12:13;15.90;99.90
55004;DHT22;40900;52.710;6.438;2023-07-22T11:14:49;15.80;99.90
55004;DHT22;40900;52.710;6.438;2023-07-22T11:17:16;15.70;99.90
55004;DHT22;40900;52.710;6.438;2023-07-22T11:19:43;15.70;99.90
55004;DHT22;40900;52.710;6.438;2023-07-22T11:22:10;15.70;99.90
55004;DHT22;40900;52.710;6.438;2023-07-22T11:24:36;15.70;99.90
55004;DHT22;40900;52.710;6.438;2023-07-22T11:27:04;15.70;99.90
55004;DHT22;40900;52.710;6.438;2023-07-22T11:29:30;15.80;99.90
55004;DHT22;40900;52.710;6.438;2023-07-22T11:31:57;15.90;99.90
55004;DHT22;40900;52.710;6.438;2023-07-22T11:34:24;15.90;99.90
55004;DHT22;40900;52.710;6.438;2023-07-22T11:36:52;15.90;99.90
55004;DHT22;40900;52.710;6.438;2023-07-22T11:39:20;15.90;99.90
55004;DHT22;40900;52.710;6.438;2023-07-22T11:41:47;16.00;99.90
55004;DHT22;40900;52.710;6.438;2023-07-22T11:44:21;16.10;99.90
55004;DHT22;40900;52.710;6.438;2023-07-22T11:47:05;16.10;99.90
55004;DHT22;40900;52.710;6.438;2023-07-22T11:49:35;16.20;99.90
55004;DHT22;40900;52.710;6.438;2023-07-22T11:52:10;16.30;99.90
55004;DHT22;40900;52.710;6.438;2023-07-22T11:54:40;16.40;99.90
55004;DHT22;40900;52.710;6.438;2023-07-22T11:57:25;16.50;99.90
55004;DHT22;40900;52.710;6.438;2023-07-22T11:59:54;16.40;99.90
55004;DHT22;40900;52.710;6.438;2023-07-22T12:02:27;16.50;99.90
55004;DHT22;40900;52.710;6.438;2023-07-22T12:05:04;16.40;99.90
55004;DHT22;40900;52.710;6.438;2023-07-22T12:07:35;16.40;99.90
55004;DHT22;40900;52.710;6.438;2023-07-22T12:10:04;16.40;99.90
55004;DHT22;40900;52.710;6.438;2023-07-22T12:12:41;16.00;99.90
55004;DHT22;40900;52.710;6.438;2023-07-22T12:15:12;15.90;99.90
55004;DHT22;40900;52.710;6.438;2023-07-22T12:17:44;15.70;99.90
55004;DHT22;40900;52.710;6.438;2023-07-22T12:20:11;15.50;99.90
55004;DHT22;40900;52.710;6.438;2023-07-22T12:22:37;15.40;99.90
55004;DHT22;40900;52.710;6.438;2023-07-22T12:25:03;15.40;99.90
55004;DHT22;40900;52.710;6.438;2023-07-22T12:27:29;15.40;99.90
55004;DHT22;40900;52.710;6.438;2023-07-22T12:29:55;15.50;99.90
55004;DHT22;40900;52.710;6.438;2023-07-22T12:32:20;15.50;99.90
55004;DHT22;40900;52.710;6.438;2023-07-22T12:34:46;15.50;99.90
55004;DHT22;40900;52.710;6.438;2023-07-22T12:37:12;15.50;99.90
55004;DHT22;40900;52.710;6.438;2023-07-22T12:39:38;15.40;99.90
55004;DHT22;40900;52.710;6.438;2023-07-22T12:42:04;15.30;99.90
55004;DHT22;40900;52.710;6.438;2023-07-22T12:44:30;15.20;99.90
55004;DHT22;40900;52.710;6.438;2023-07-22T12:46:56;15.20;99.90
55004;DHT22;40900;52.710;6.438;2023-07-22T12:49:22;15.30;99.90
55004;DHT22;40900;52.710;6.438;2023-07-22T12:51:48;15.20;99.90
55004;DHT22;40900;52.710;6.438;2023-07-22T12:54:14;15.30;99.90
55004;DHT22;40900;52.710;6.438;2023-07-22T12:56:39;15.30;99.90
55004;DHT22;40900;52.710;6.438;2023-07-22T12:59:05;15.30;99.90
55004;DHT22;40900;52.710;6.438;2023-07-22T13:01:31;15.30;99.90
55004;DHT22;40900;52.710;6.438;2023-07-22T13:03:57;15.40;99.90
55004;DHT22;40900;52.710;6.438;2023-07-22T13:06:23;15.40;99.90
55004;DHT22;40900;52.710;6.438;2023-07-22T13:08:49;15.40;99.90
55004;DHT22;40900;52.710;6.438;2023-07-22T13:11:15;15.40;99.90
55004;DHT22;40900;52.710;6.438;2023-07-22T13:13:40;15.40;99.90
55004;DHT22;40900;52.710;6.438;2023-07-22T13:16:06;15.50;99.90
55004;DHT22;40900;52.710;6.438;2023-07-22T13:18:32;15.50;99.90
55004;DHT22;40900;52.710;6.438;2023-07-22T13:20:58;15.60;99.90
55004;DHT22;40900;52.710;6.438;2023-07-22T13:23:24;15.60;99.90
55004;DHT22;40900;52.710;6.438;2023-07-22T13:25:50;15.70;99.90
55004;DHT22;40900;52.710;6.438;2023-07-22T13:28:15;15.70;99.90
55004;DHT22;40900;52.710;6.438;2023-07-22T13:30:41;15.80;99.90
55004;DHT22;40900;52.710;6.438;2023-07-22T13:33:07;15.90;99.90
55004;DHT22;40900;52.710;6.438;2023-07-22T13:35:33;16.00;99.90
55004;DHT22;40900;52.710;6.438;2023-07-22T13:37:59;16.10;99.90
55004;DHT22;40900;52.710;6.438;2023-07-22T13:40:25;16.10;99.90
55004;DHT22;40900;52.710;6.438;2023-07-22T13:42:51;16.10;99.90
55004;DHT22;40900;52.710;6.438;2023-07-22T13:45:17;16.10;99.90
55004;DHT22;40900;52.710;6.438;2023-07-22T13:47:44;16.20;99.90
55004;DHT22;40900;52.710;6.438;2023-07-22T13:50:10;16.20;99.90
55004;DHT22;40900;52.710;6.438;2023-07-22T13:52:36;16.20;99.90
55004;DHT22;40900;52.710;6.438;2023-07-22T13:55:02;16.20;99.90
55004;DHT22;40900;52.710;6.438;2023-07-22T13:57:28;16.20;99.90
55004;DHT22;40900;52.710;6.438;2023-07-22T13:59:53;16.20;99.90
55004;DHT22;40900;52.710;6.438;2023-07-22T14:02:19;16.30;99.90
55004;DHT22;40900;52.710;6.438;2023-07-22T14:04:45;16.30;99.90
55004;DHT22;40900;52.710;6.438;2023-07-22T14:07:11;16.30;99.90
55004;DHT22;40900;52.710;6.438;2023-07-22T14:09:37;16.30;99.90
55004;DHT22;40900;52.710;6.438;2023-07-22T14:12:03;16.30;99.90
55004;DHT22;40900;52.710;6.438;2023-07-22T14:14:29;16.30;99.90
55004;DHT22;40900;52.710;6.438;2023-07-22T14:16:56;16.30;99.90
55004;DHT22;40900;52.710;6.438;2023-07-22T14:19:22;16.30;99.90
55004;DHT22;40900;52.710;6.438;2023-07-22T14:21:48;16.20;99.90
55004;DHT22;40900;52.710;6.438;2023-07-22T14:24:14;16.30;99.90
55004;DHT22;40900;52.710;6.438;2023-07-22T14:26:40;16.20;99.90
55004;DHT22;40900;52.710;6.438;2023-07-22T14:29:06;16.20;99.90
55004;DHT22;40900;52.710;6.438;2023-07-22T14:31:32;16.20;99.90
55004;DHT22;40900;52.710;6.438;2023-07-22T14:33:58;16.20;99.90
55004;DHT22;40900;52.710;6.438;2023-07-22T14:36:24;16.10;99.90
55004;DHT22;40900;52.710;6.438;2023-07-22T14:38:50;16.10;99.90
55004;DHT22;40900;52.710;6.438;2023-07-22T14:41:16;16.10;99.90
55004;DHT22;40900;52.710;6.438;2023-07-22T14:43:42;16.00;99.90
55004;DHT22;40900;52.710;6.438;2023-07-22T14:46:07;16.00;99.90
55004;DHT22;40900;52.710;6.438;2023-07-22T14:48:34;16.00;99.90
55004;DHT22;40900;52.710;6.438;2023-07-22T14:51:00;16.00;99.90
55004;DHT22;40900;52.710;6.438;2023-07-22T14:53:25;15.90;99.90
55004;DHT22;40900;52.710;6.438;2023-07-22T14:55:52;16.00;99.90
55004;DHT22;40900;52.710;6.438;2023-07-22T14:58:17;16.00;99.90
55004;DHT22;40900;52.710;6.438;2023-07-22T15:00:43;16.00;99.90
55004;DHT22;40900;52.710;6.438;2023-07-22T15:03:09;16.00;99.90
55004;DHT22;40900;52.710;6.438;2023-07-22T15:05:35;16.00;99.90
55004;DHT22;40900;52.710;6.438;2023-07-22T15:08:01;16.00;99.90
55004;DHT22;40900;52.710;6.438;2023-07-22T15:10:27;16.00;99.90
55004;DHT22;40900;52.710;6.438;2023-07-22T15:12:53;15.90;99.90
55004;DHT22;40900;52.710;6.438;2023-07-22T15:15:19;16.00;99.90
55004;DHT22;40900;52.710;6.438;2023-07-22T15:17:46;16.00;99.90
55004;DHT22;40900;52.710;6.438;2023-07-22T15:20:12;16.00;99.90
55004;DHT22;40900;52.710;6.438;2023-07-22T15:22:38;16.00;99.90
55004;DHT22;40900;52.710;6.438;2023-07-22T15:25:04;16.00;99.90
55004;DHT22;40900;52.710;6.438;2023-07-22T15:27:30;16.00;99.90
55004;DHT22;40900;52.710;6.438;2023-07-22T15:29:56;16.00;99.90
55004;DHT22;40900;52.710;6.438;2023-07-22T15:32:22;16.00;99.90
55004;DHT22;40900;52.710;6.438;2023-07-22T15:34:48;16.10;99.90
55004;DHT22;40900;52.710;6.438;2023-07-22T15:37:13;16.10;99.90
55004;DHT22;40900;52.710;6.438;2023-07-22T15:39:39;16.10;99.90